BAW1325 BIKF-EGLL
Flight info
| Callsign | BAW1325 |
|---|---|
| Flight time | 2h 27m |
| Altitude | 37000 |
| Route | OSKUM3A OSKUM DCT RATSU/N0454F370 DCT BARKU DCT ORSUM DCT GOW DCT ELBUS DCT NAVSO DCT AKOMU DCT VAMEB DCT NUGRA |
| Aircraft | A320/M-SDE3FGHIRWY/LB1 |
Departure
| Time | 2026-05-05 21:31 |
|---|---|
| Airport | Keflavik International Airport (BIKF) |
Arrival
| Time | 2026-05-05 23:59 |
|---|---|
| Airport | London Heathrow Airport (EGLL) |
| Time | Latitude | Longitude | Altitude | Speed | Heading |
|---|---|---|---|---|---|
| 2026-05-05 20:49 | 63.99377 | -22.62202 | 140 ft | 0 kts | 238° |
| 2026-05-05 21:16 | 63.99386 | -22.62168 | 140 ft | 3 kts | 238° |
| 2026-05-05 21:17 | 63.99399 | -22.62122 | 143 ft | 3 kts | 238° |
| 2026-05-05 21:17 | 63.99410 | -22.62083 | 143 ft | 2 kts | 238° |
| 2026-05-05 21:17 | 63.99423 | -22.62050 | 143 ft | 3 kts | 189° |
| 2026-05-05 21:17 | 63.99441 | -22.62056 | 143 ft | 2 kts | 150° |
| 2026-05-05 21:18 | 63.99430 | -22.62041 | 143 ft | 3 kts | 150° |
| 2026-05-05 21:18 | 63.99410 | -22.62014 | 142 ft | 3 kts | 150° |
| 2026-05-05 21:18 | 63.99393 | -22.61993 | 141 ft | 3 kts | 153° |
| 2026-05-05 21:18 | 63.99371 | -22.61987 | 143 ft | 2 kts | 179° |
| 2026-05-05 21:19 | 63.99351 | -22.61986 | 143 ft | 3 kts | 180° |
| 2026-05-05 21:19 | 63.99334 | -22.61986 | 143 ft | 1 kts | 180° |
| 2026-05-05 21:23 | 63.99320 | -22.61986 | 144 ft | 4 kts | 180° |
| 2026-05-05 21:23 | 63.99281 | -22.61986 | 143 ft | 7 kts | 180° |
| 2026-05-05 21:23 | 63.99219 | -22.61986 | 143 ft | 11 kts | 180° |
| 2026-05-05 21:23 | 63.99174 | -22.61877 | 143 ft | 12 kts | 92° |
| 2026-05-05 21:24 | 63.99173 | -22.61701 | 147 ft | 11 kts | 90° |
| 2026-05-05 21:24 | 63.99173 | -22.61539 | 151 ft | 10 kts | 90° |
| 2026-05-05 21:24 | 63.99173 | -22.61394 | 154 ft | 9 kts | 90° |
| 2026-05-05 21:24 | 63.99174 | -22.61242 | 158 ft | 10 kts | 89° |
| 2026-05-05 21:25 | 63.99143 | -22.61128 | 160 ft | 8 kts | 158° |
| 2026-05-05 21:25 | 63.99079 | -22.61123 | 163 ft | 10 kts | 181° |
| 2026-05-05 21:25 | 63.98996 | -22.61124 | 164 ft | 16 kts | 180° |
| 2026-05-05 21:25 | 63.98855 | -22.61125 | 164 ft | 23 kts | 180° |
| 2026-05-05 21:26 | 63.98686 | -22.61125 | 163 ft | 26 kts | 180° |
| 2026-05-05 21:26 | 63.98505 | -22.61126 | 166 ft | 27 kts | 179° |
| 2026-05-05 21:26 | 63.98304 | -22.61128 | 161 ft | 30 kts | 180° |
| 2026-05-05 21:26 | 63.98147 | -22.61052 | 162 ft | 18 kts | 114° |
| 2026-05-05 21:27 | 63.98068 | -22.60938 | 168 ft | 15 kts | 180° |
| 2026-05-05 21:27 | 63.97961 | -22.60939 | 169 ft | 16 kts | 180° |
| 2026-05-05 21:27 | 63.97840 | -22.60939 | 170 ft | 18 kts | 180° |
| 2026-05-05 21:27 | 63.97704 | -22.60939 | 169 ft | 21 kts | 180° |
| 2026-05-05 21:28 | 63.97549 | -22.60939 | 166 ft | 24 kts | 180° |
| 2026-05-05 21:28 | 63.97371 | -22.60940 | 163 ft | 28 kts | 180° |
| 2026-05-05 21:28 | 63.97162 | -22.60940 | 156 ft | 32 kts | 180° |
| 2026-05-05 21:28 | 63.96948 | -22.60940 | 149 ft | 27 kts | 180° |
| 2026-05-05 21:29 | 63.96775 | -22.60941 | 142 ft | 26 kts | 181° |
| 2026-05-05 21:29 | 63.96595 | -22.60939 | 136 ft | 26 kts | 179° |
| 2026-05-05 21:29 | 63.96478 | -22.60911 | 135 ft | 13 kts | 146° |
| 2026-05-05 21:29 | 63.96461 | -22.60718 | 141 ft | 13 kts | 90° |
| 2026-05-05 21:30 | 63.96482 | -22.60546 | 145 ft | 11 kts | 22° |
| 2026-05-05 21:30 | 63.96570 | -22.60543 | 148 ft | 20 kts | 0° |
| 2026-05-05 21:30 | 63.96915 | -22.60536 | 159 ft | 79 kts | 1° |
| 2026-05-05 21:30 | 63.97638 | -22.60520 | 174 ft | 126 kts | 2° |
| 2026-05-05 21:31 | 63.98612 | -22.60590 | 527 ft | 144 kts | 353° |
| 2026-05-05 21:31 | 63.99635 | -22.60774 | 1064 ft | 151 kts | 1° |
| 2026-05-05 21:31 | 64.00700 | -22.60674 | 1547 ft | 161 kts | 10° |
| 2026-05-05 21:31 | 64.01897 | -22.60573 | 1833 ft | 183 kts | 7° |
| 2026-05-05 21:32 | 64.03217 | -22.60531 | 2315 ft | 193 kts | 5° |
| 2026-05-05 21:32 | 64.04580 | -22.60514 | 2937 ft | 198 kts | 7° |
| 2026-05-05 21:32 | 64.05847 | -22.59583 | 3689 ft | 192 kts | 45° |
| 2026-05-05 21:32 | 64.06493 | -22.56862 | 4175 ft | 211 kts | 77° |
| 2026-05-05 21:33 | 64.06617 | -22.53318 | 4606 ft | 235 kts | 89° |
| 2026-05-05 21:33 | 64.06567 | -22.49503 | 5379 ft | 243 kts | 91° |
| 2026-05-05 21:33 | 64.06482 | -22.45599 | 6257 ft | 248 kts | 91° |
| 2026-05-05 21:33 | 64.06232 | -22.41657 | 7075 ft | 256 kts | 105° |
| 2026-05-05 21:34 | 64.05447 | -22.37951 | 7890 ft | 264 kts | 118° |
| 2026-05-05 21:34 | 64.04506 | -22.34323 | 8734 ft | 267 kts | 117° |
| 2026-05-05 21:34 | 64.03572 | -22.30620 | 9564 ft | 271 kts | 116° |
| 2026-05-05 21:34 | 64.02634 | -22.26861 | 10374 ft | 274 kts | 116° |
| 2026-05-05 21:35 | 64.01668 | -22.22964 | 10741 ft | 294 kts | 117° |
| 2026-05-05 21:35 | 64.00625 | -22.18745 | 10930 ft | 317 kts | 116° |
| 2026-05-05 21:35 | 63.99512 | -22.14266 | 11322 ft | 330 kts | 117° |
| 2026-05-05 21:35 | 63.98365 | -22.09679 | 11952 ft | 335 kts | 117° |
| 2026-05-05 21:36 | 63.97199 | -22.05049 | 12620 ft | 339 kts | 118° |
| 2026-05-05 21:36 | 63.96017 | -22.00363 | 13287 ft | 343 kts | 117° |
| 2026-05-05 21:36 | 63.94824 | -21.95633 | 13969 ft | 346 kts | 118° |
| 2026-05-05 21:36 | 63.93597 | -21.90783 | 14284 ft | 360 kts | 120° |
| 2026-05-05 21:37 | 63.92764 | -21.87500 | 14557 ft | 366 kts | 120° |
| 2026-05-05 21:37 | 63.91479 | -21.82449 | 15113 ft | 370 kts | 120° |
| 2026-05-05 21:37 | 63.90181 | -21.77348 | 15635 ft | 375 kts | 120° |
| 2026-05-05 21:37 | 63.88872 | -21.72216 | 16212 ft | 378 kts | 121° |
| 2026-05-05 21:38 | 63.87546 | -21.67037 | 16785 ft | 381 kts | 121° |
| 2026-05-05 21:38 | 63.86212 | -21.61841 | 17437 ft | 381 kts | 121° |
| 2026-05-05 21:38 | 63.84864 | -21.56603 | 17953 ft | 387 kts | 121° |
| 2026-05-05 21:38 | 63.83504 | -21.51312 | 18531 ft | 390 kts | 121° |
| 2026-05-05 21:39 | 63.82130 | -21.45971 | 18974 ft | 395 kts | 122° |
| 2026-05-05 21:39 | 63.80736 | -21.40585 | 19499 ft | 397 kts | 122° |
| 2026-05-05 21:39 | 63.79329 | -21.35175 | 20047 ft | 399 kts | 122° |
| 2026-05-05 21:39 | 63.77914 | -21.29724 | 20500 ft | 403 kts | 120° |
| 2026-05-05 21:40 | 63.76729 | -21.23969 | 21034 ft | 406 kts | 110° |
| 2026-05-05 21:40 | 63.75949 | -21.17793 | 21476 ft | 410 kts | 101° |
| 2026-05-05 21:40 | 63.75535 | -21.11388 | 21895 ft | 415 kts | 97° |
| 2026-05-05 21:40 | 63.75147 | -21.04890 | 22236 ft | 421 kts | 98° |
| 2026-05-05 21:41 | 63.74741 | -20.98289 | 22564 ft | 427 kts | 98° |
| 2026-05-05 21:41 | 63.74320 | -20.91611 | 22979 ft | 430 kts | 98° |
| 2026-05-05 21:41 | 63.73890 | -20.84896 | 23406 ft | 434 kts | 98° |
| 2026-05-05 21:41 | 63.73454 | -20.78147 | 23818 ft | 437 kts | 98° |
| 2026-05-05 21:42 | 63.73010 | -20.71332 | 24159 ft | 440 kts | 98° |
| 2026-05-05 21:42 | 63.72567 | -20.64554 | 24500 ft | 443 kts | 98° |
| 2026-05-05 21:42 | 63.72111 | -20.57671 | 24834 ft | 446 kts | 98° |
| 2026-05-05 21:42 | 63.71649 | -20.50729 | 25214 ft | 448 kts | 99° |
| 2026-05-05 21:43 | 63.70957 | -20.43874 | 25585 ft | 449 kts | 108° |
| 2026-05-05 21:43 | 63.69817 | -20.37290 | 25920 ft | 451 kts | 115° |
| 2026-05-05 21:43 | 63.68498 | -20.30857 | 26252 ft | 454 kts | 115° |
| 2026-05-05 21:43 | 63.67164 | -20.24361 | 26561 ft | 457 kts | 115° |
| 2026-05-05 21:44 | 63.65827 | -20.17827 | 26896 ft | 461 kts | 115° |
| 2026-05-05 21:44 | 63.64504 | -20.11349 | 27219 ft | 464 kts | 115° |
| 2026-05-05 21:44 | 63.63140 | -20.04687 | 27538 ft | 467 kts | 115° |
| 2026-05-05 21:44 | 63.61769 | -19.98023 | 27854 ft | 470 kts | 115° |
| 2026-05-05 21:45 | 63.60387 | -19.91352 | 28187 ft | 473 kts | 115° |
| 2026-05-05 21:45 | 63.58984 | -19.84614 | 28361 ft | 480 kts | 116° |
| 2026-05-05 21:45 | 63.57558 | -19.77786 | 28553 ft | 485 kts | 116° |
| 2026-05-05 21:45 | 63.56124 | -19.70927 | 28962 ft | 486 kts | 115° |
| 2026-05-05 21:46 | 63.54682 | -19.64048 | 29387 ft | 487 kts | 115° |
| 2026-05-05 21:46 | 63.53240 | -19.57192 | 29829 ft | 487 kts | 115° |
| 2026-05-05 21:46 | 63.51792 | -19.50322 | 30345 ft | 485 kts | 115° |
| 2026-05-05 21:46 | 63.50353 | -19.43507 | 30807 ft | 483 kts | 115° |
| 2026-05-05 21:47 | 63.48929 | -19.36803 | 31210 ft | 482 kts | 115° |
| 2026-05-05 21:47 | 63.47486 | -19.30040 | 31599 ft | 482 kts | 115° |
| 2026-05-05 21:47 | 63.46035 | -19.23271 | 31991 ft | 482 kts | 115° |
| 2026-05-05 21:47 | 63.44580 | -19.16496 | 32367 ft | 482 kts | 115° |
| 2026-05-05 21:48 | 63.43129 | -19.09758 | 32746 ft | 482 kts | 115° |
| 2026-05-05 21:48 | 63.41667 | -19.03001 | 33156 ft | 482 kts | 115° |
| 2026-05-05 21:48 | 63.40208 | -18.96270 | 33539 ft | 482 kts | 115° |
| 2026-05-05 21:48 | 63.38745 | -18.89541 | 33935 ft | 482 kts | 115° |
| 2026-05-05 21:49 | 63.37280 | -18.82818 | 34305 ft | 481 kts | 115° |
| 2026-05-05 21:49 | 63.35812 | -18.76113 | 34618 ft | 481 kts | 115° |
| 2026-05-05 21:49 | 63.34345 | -18.69433 | 34932 ft | 480 kts | 115° |
| 2026-05-05 21:49 | 63.32875 | -18.62756 | 35242 ft | 480 kts | 115° |
| 2026-05-05 21:50 | 63.31401 | -18.56087 | 35580 ft | 479 kts | 115° |
| 2026-05-05 21:50 | 63.29946 | -18.49530 | 35908 ft | 478 kts | 115° |
| 2026-05-05 21:50 | 63.28476 | -18.42933 | 36217 ft | 477 kts | 116° |
| 2026-05-05 21:50 | 63.27002 | -18.36328 | 36496 ft | 476 kts | 116° |
| 2026-05-05 21:51 | 63.25535 | -18.29758 | 36763 ft | 475 kts | 116° |
| 2026-05-05 21:51 | 63.24063 | -18.23175 | 37027 ft | 475 kts | 116° |
| 2026-05-05 21:51 | 63.22590 | -18.16609 | 37180 ft | 476 kts | 116° |
| 2026-05-05 21:51 | 63.21104 | -18.10013 | 37213 ft | 481 kts | 116° |
| 2026-05-05 21:52 | 63.16552 | -17.89926 | 37208 ft | 489 kts | 116° |
| 2026-05-05 21:53 | 63.13471 | -17.76483 | 37207 ft | 490 kts | 116° |
| 2026-05-05 21:53 | 63.10369 | -17.63065 | 37205 ft | 490 kts | 117° |
| 2026-05-05 21:54 | 63.07258 | -17.49685 | 37227 ft | 490 kts | 116° |
| 2026-05-05 21:54 | 63.04160 | -17.36388 | 37224 ft | 490 kts | 117° |
| 2026-05-05 21:55 | 63.01038 | -17.23049 | 37221 ft | 490 kts | 117° |
| 2026-05-05 21:55 | 62.97900 | -17.09734 | 37204 ft | 490 kts | 117° |
| 2026-05-05 21:56 | 62.94743 | -16.96427 | 37204 ft | 491 kts | 117° |
| 2026-05-05 21:56 | 62.91561 | -16.83133 | 37206 ft | 492 kts | 117° |
| 2026-05-05 21:57 | 62.88372 | -16.69855 | 37212 ft | 492 kts | 117° |
| 2026-05-05 21:57 | 62.85168 | -16.56610 | 37227 ft | 492 kts | 117° |
| 2026-05-05 21:58 | 62.81946 | -16.43397 | 37225 ft | 492 kts | 118° |
| 2026-05-05 21:58 | 62.78723 | -16.30231 | 37197 ft | 491 kts | 118° |
| 2026-05-05 21:59 | 62.75482 | -16.17083 | 37199 ft | 492 kts | 118° |
| 2026-05-05 21:59 | 62.72221 | -16.03946 | 37206 ft | 493 kts | 118° |
| 2026-05-05 22:00 | 62.68964 | -15.90897 | 37207 ft | 493 kts | 118° |
| 2026-05-05 22:00 | 62.65683 | -15.77787 | 37213 ft | 493 kts | 118° |
| 2026-05-05 22:01 | 62.62393 | -15.64692 | 37212 ft | 493 kts | 118° |
| 2026-05-05 22:01 | 62.59073 | -15.51643 | 37229 ft | 493 kts | 119° |
| 2026-05-05 22:02 | 62.55743 | -15.38616 | 37188 ft | 494 kts | 119° |
| 2026-05-05 22:02 | 62.52394 | -15.25598 | 37198 ft | 495 kts | 119° |
| 2026-05-05 22:03 | 62.49034 | -15.12576 | 37211 ft | 495 kts | 119° |
| 2026-05-05 22:03 | 62.45660 | -14.99583 | 37210 ft | 496 kts | 119° |
| 2026-05-05 22:04 | 62.42270 | -14.86600 | 37214 ft | 496 kts | 120° |
| 2026-05-05 22:04 | 62.38874 | -14.73650 | 37222 ft | 496 kts | 120° |
| 2026-05-05 22:05 | 62.35477 | -14.60824 | 37190 ft | 496 kts | 120° |
| 2026-05-05 22:05 | 62.32045 | -14.47956 | 37206 ft | 496 kts | 120° |
| 2026-05-05 22:06 | 62.28705 | -14.35456 | 37196 ft | 496 kts | 120° |
| 2026-05-05 22:06 | 62.25265 | -14.22610 | 37202 ft | 496 kts | 120° |
| 2026-05-05 22:07 | 62.21803 | -14.09800 | 37200 ft | 496 kts | 120° |
| 2026-05-05 22:07 | 62.18322 | -13.97029 | 37202 ft | 496 kts | 121° |
| 2026-05-05 22:08 | 62.14835 | -13.84279 | 37229 ft | 496 kts | 121° |
| 2026-05-05 22:08 | 62.11339 | -13.71558 | 37189 ft | 496 kts | 121° |
| 2026-05-05 22:09 | 62.07823 | -13.58869 | 37198 ft | 497 kts | 121° |
| 2026-05-05 22:09 | 62.04311 | -13.46246 | 37193 ft | 497 kts | 121° |
| 2026-05-05 22:10 | 62.00773 | -13.33595 | 37190 ft | 497 kts | 121° |
| 2026-05-05 22:10 | 61.97223 | -13.20971 | 37191 ft | 497 kts | 121° |
| 2026-05-05 22:11 | 61.93662 | -13.08393 | 37197 ft | 497 kts | 122° |
| 2026-05-05 22:11 | 61.90092 | -12.95820 | 37188 ft | 497 kts | 122° |
| 2026-05-05 22:12 | 61.86530 | -12.83340 | 37185 ft | 498 kts | 122° |
| 2026-05-05 22:12 | 61.82924 | -12.70805 | 37194 ft | 498 kts | 122° |
| 2026-05-05 22:13 | 61.79298 | -12.58323 | 37186 ft | 498 kts | 122° |
| 2026-05-05 22:13 | 61.75666 | -12.45845 | 37189 ft | 498 kts | 122° |
| 2026-05-05 22:14 | 61.72056 | -12.33487 | 37187 ft | 498 kts | 122° |
| 2026-05-05 22:14 | 61.68414 | -12.21075 | 37193 ft | 498 kts | 122° |
| 2026-05-05 22:15 | 61.64758 | -12.08689 | 37181 ft | 498 kts | 123° |
| 2026-05-05 22:15 | 61.61089 | -11.96335 | 37179 ft | 498 kts | 123° |
| 2026-05-05 22:16 | 61.57399 | -11.84003 | 37181 ft | 499 kts | 123° |
| 2026-05-05 22:16 | 61.53695 | -11.71674 | 37186 ft | 499 kts | 123° |
| 2026-05-05 22:17 | 61.49986 | -11.59378 | 37185 ft | 499 kts | 123° |
| 2026-05-05 22:17 | 61.46254 | -11.47125 | 37187 ft | 499 kts | 123° |
| 2026-05-05 22:18 | 61.42515 | -11.34871 | 37156 ft | 499 kts | 123° |
| 2026-05-05 22:18 | 61.38776 | -11.22658 | 37183 ft | 500 kts | 124° |
| 2026-05-05 22:19 | 61.35021 | -11.10462 | 37183 ft | 500 kts | 124° |
| 2026-05-05 22:19 | 61.31243 | -10.98301 | 37183 ft | 499 kts | 124° |
| 2026-05-05 22:20 | 61.27455 | -10.86181 | 37186 ft | 500 kts | 124° |
| 2026-05-05 22:20 | 61.23658 | -10.74060 | 37186 ft | 500 kts | 124° |
| 2026-05-05 22:21 | 61.19857 | -10.61979 | 37185 ft | 500 kts | 124° |
| 2026-05-05 22:21 | 61.16036 | -10.49948 | 37181 ft | 500 kts | 124° |
| 2026-05-05 22:22 | 61.12235 | -10.38019 | 37198 ft | 500 kts | 124° |
| 2026-05-05 22:22 | 61.08409 | -10.26031 | 37193 ft | 499 kts | 125° |
| 2026-05-05 22:23 | 61.04565 | -10.14094 | 37186 ft | 499 kts | 125° |
| 2026-05-05 22:23 | 61.00563 | -10.02405 | 37189 ft | 497 kts | 133° |
| 2026-05-05 22:24 | 60.96356 | -9.94467 | 37145 ft | 491 kts | 147° |
| 2026-05-05 22:24 | 60.90839 | -9.86150 | 37161 ft | 492 kts | 147° |
| 2026-05-05 22:25 | 60.84416 | -9.76520 | 37169 ft | 492 kts | 147° |
| 2026-05-05 22:25 | 60.79778 | -9.69592 | 37174 ft | 492 kts | 147° |
| 2026-05-05 22:26 | 60.74234 | -9.61337 | 37178 ft | 492 kts | 147° |
| 2026-05-05 22:26 | 60.68703 | -9.53126 | 37160 ft | 492 kts | 147° |
| 2026-05-05 22:27 | 60.63193 | -9.45003 | 37168 ft | 492 kts | 148° |
| 2026-05-05 22:27 | 60.57605 | -9.36998 | 37172 ft | 490 kts | 150° |
| 2026-05-05 22:28 | 60.51872 | -9.29510 | 37175 ft | 489 kts | 152° |
| 2026-05-05 22:28 | 60.46086 | -9.22230 | 37177 ft | 490 kts | 152° |
| 2026-05-05 22:29 | 60.40319 | -9.14881 | 37150 ft | 490 kts | 152° |
| 2026-05-05 22:29 | 60.34568 | -9.07448 | 37164 ft | 490 kts | 151° |
| 2026-05-05 22:30 | 60.28820 | -9.00030 | 37174 ft | 490 kts | 151° |
| 2026-05-05 22:30 | 60.23058 | -8.92665 | 37181 ft | 490 kts | 152° |
| 2026-05-05 22:31 | 60.17278 | -8.85328 | 37180 ft | 491 kts | 152° |
| 2026-05-05 22:31 | 60.11509 | -8.78037 | 37160 ft | 490 kts | 152° |
| 2026-05-05 22:32 | 60.05730 | -8.70759 | 37178 ft | 490 kts | 152° |
| 2026-05-05 22:32 | 59.99980 | -8.63557 | 37183 ft | 490 kts | 152° |
| 2026-05-05 22:33 | 59.94192 | -8.56325 | 37194 ft | 490 kts | 152° |
| 2026-05-05 22:33 | 59.88415 | -8.49123 | 37155 ft | 490 kts | 152° |
| 2026-05-05 22:34 | 59.82623 | -8.41939 | 37168 ft | 490 kts | 152° |
| 2026-05-05 22:34 | 59.76832 | -8.34797 | 37175 ft | 490 kts | 152° |
| 2026-05-05 22:35 | 59.71039 | -8.27682 | 37181 ft | 490 kts | 152° |
| 2026-05-05 22:35 | 59.65246 | -8.20594 | 37181 ft | 489 kts | 152° |
| 2026-05-05 22:36 | 59.59454 | -8.13533 | 37164 ft | 488 kts | 152° |
| 2026-05-05 22:36 | 59.53704 | -8.06550 | 37175 ft | 487 kts | 152° |
| 2026-05-05 22:37 | 59.47930 | -7.99560 | 37176 ft | 487 kts | 152° |
| 2026-05-05 22:37 | 59.42152 | -7.92610 | 37182 ft | 486 kts | 152° |
| 2026-05-05 22:38 | 59.36374 | -7.85696 | 37133 ft | 486 kts | 153° |
| 2026-05-05 22:38 | 59.30613 | -7.78823 | 37184 ft | 484 kts | 153° |
| 2026-05-05 22:39 | 59.24863 | -7.71978 | 37207 ft | 483 kts | 153° |
| 2026-05-05 22:39 | 59.19124 | -7.65177 | 37196 ft | 482 kts | 153° |
| 2026-05-05 22:40 | 59.13395 | -7.58413 | 37181 ft | 481 kts | 153° |
| 2026-05-05 22:40 | 59.07669 | -7.51669 | 37168 ft | 480 kts | 153° |
| 2026-05-05 22:41 | 59.01991 | -7.45024 | 37181 ft | 478 kts | 153° |
| 2026-05-05 22:41 | 58.96292 | -7.38387 | 37184 ft | 477 kts | 153° |
| 2026-05-05 22:42 | 58.90598 | -7.31778 | 37182 ft | 477 kts | 153° |
| 2026-05-05 22:42 | 58.84910 | -7.25189 | 37180 ft | 476 kts | 153° |
| 2026-05-05 22:43 | 58.79222 | -7.18632 | 37158 ft | 476 kts | 153° |
| 2026-05-05 22:43 | 58.73541 | -7.12110 | 37172 ft | 476 kts | 153° |
| 2026-05-05 22:44 | 58.67845 | -7.05596 | 37181 ft | 476 kts | 153° |
| 2026-05-05 22:44 | 58.62157 | -6.99124 | 37183 ft | 476 kts | 153° |
| 2026-05-05 22:45 | 58.56455 | -6.92645 | 37181 ft | 475 kts | 153° |
| 2026-05-05 22:45 | 58.50762 | -6.86199 | 37183 ft | 475 kts | 153° |
| 2026-05-05 22:46 | 58.45107 | -6.79820 | 37182 ft | 475 kts | 153° |
| 2026-05-05 22:46 | 58.39413 | -6.73426 | 37181 ft | 475 kts | 153° |
| 2026-05-05 22:47 | 58.33717 | -6.67059 | 37177 ft | 475 kts | 154° |
| 2026-05-05 22:47 | 58.28012 | -6.60715 | 37152 ft | 474 kts | 153° |
| 2026-05-05 22:48 | 58.22319 | -6.54401 | 37169 ft | 474 kts | 153° |
| 2026-05-05 22:48 | 58.16635 | -6.48114 | 37176 ft | 473 kts | 153° |
| 2026-05-05 22:49 | 58.10945 | -6.41842 | 37179 ft | 473 kts | 154° |
| 2026-05-05 22:49 | 58.05249 | -6.35585 | 37179 ft | 473 kts | 154° |
| 2026-05-05 22:50 | 57.99559 | -6.29371 | 37173 ft | 472 kts | 154° |
| 2026-05-05 22:50 | 57.93875 | -6.23192 | 37176 ft | 471 kts | 154° |
| 2026-05-05 22:51 | 57.88231 | -6.17064 | 37182 ft | 471 kts | 154° |
| 2026-05-05 22:51 | 57.82547 | -6.10923 | 37178 ft | 471 kts | 154° |
| 2026-05-05 22:52 | 57.76859 | -6.04781 | 37143 ft | 471 kts | 154° |
| 2026-05-05 22:52 | 57.71179 | -5.98675 | 37164 ft | 470 kts | 154° |
| 2026-05-05 22:53 | 57.65498 | -5.92617 | 37171 ft | 470 kts | 154° |
| 2026-05-05 22:53 | 57.59823 | -5.86568 | 37172 ft | 470 kts | 154° |
| 2026-05-05 22:54 | 57.54146 | -5.80545 | 37174 ft | 469 kts | 154° |
| 2026-05-05 22:54 | 57.48472 | -5.74537 | 37152 ft | 469 kts | 154° |
| 2026-05-05 22:55 | 57.42838 | -5.68587 | 37158 ft | 468 kts | 154° |
| 2026-05-05 22:55 | 57.37177 | -5.62661 | 37163 ft | 467 kts | 154° |
| 2026-05-05 22:56 | 57.31507 | -5.56743 | 37162 ft | 467 kts | 154° |
| 2026-05-05 22:56 | 57.25845 | -5.50837 | 37128 ft | 467 kts | 154° |
| 2026-05-05 22:57 | 57.20191 | -5.44942 | 37146 ft | 467 kts | 154° |
| 2026-05-05 22:57 | 57.14534 | -5.39074 | 37148 ft | 466 kts | 154° |
| 2026-05-05 22:58 | 57.08870 | -5.33241 | 37156 ft | 466 kts | 154° |
| 2026-05-05 22:58 | 57.03103 | -5.27890 | 37157 ft | 462 kts | 162° |
| 2026-05-05 22:59 | 56.97184 | -5.23521 | 37130 ft | 461 kts | 162° |
| 2026-05-05 22:59 | 56.91225 | -5.19143 | 37144 ft | 461 kts | 162° |
| 2026-05-05 23:00 | 56.82295 | -5.12570 | 37145 ft | 461 kts | 162° |
| 2026-05-05 23:00 | 56.76334 | -5.08193 | 37150 ft | 461 kts | 162° |
| 2026-05-05 23:01 | 56.70382 | -5.03846 | 37124 ft | 461 kts | 162° |
| 2026-05-05 23:01 | 56.64415 | -4.99508 | 37133 ft | 461 kts | 162° |
| 2026-05-05 23:02 | 56.58457 | -4.95199 | 37133 ft | 461 kts | 162° |
| 2026-05-05 23:02 | 56.52494 | -4.90899 | 37136 ft | 461 kts | 162° |
| 2026-05-05 23:03 | 56.46530 | -4.86601 | 37113 ft | 461 kts | 162° |
| 2026-05-05 23:03 | 56.40563 | -4.82313 | 37149 ft | 461 kts | 162° |
| 2026-05-05 23:04 | 56.34608 | -4.78058 | 37149 ft | 460 kts | 162° |
| 2026-05-05 23:04 | 56.28692 | -4.73862 | 37147 ft | 460 kts | 162° |
| 2026-05-05 23:05 | 56.23226 | -4.69993 | 37150 ft | 460 kts | 162° |
| 2026-05-05 23:05 | 56.17275 | -4.65780 | 37140 ft | 460 kts | 162° |
| 2026-05-05 23:06 | 56.11326 | -4.61567 | 37141 ft | 459 kts | 162° |
| 2026-05-05 23:06 | 56.05385 | -4.57377 | 37146 ft | 459 kts | 162° |
| 2026-05-05 23:07 | 55.99439 | -4.53206 | 37151 ft | 459 kts | 162° |
| 2026-05-05 23:07 | 55.93503 | -4.49069 | 37159 ft | 458 kts | 162° |
| 2026-05-05 23:08 | 55.87573 | -4.44916 | 37155 ft | 459 kts | 159° |
| 2026-05-05 23:08 | 55.81928 | -4.39500 | 37157 ft | 461 kts | 154° |
| 2026-05-05 23:09 | 55.76329 | -4.33947 | 37148 ft | 461 kts | 154° |
| 2026-05-05 23:09 | 55.70718 | -4.28416 | 37130 ft | 461 kts | 154° |
| 2026-05-05 23:10 | 55.65109 | -4.22897 | 37135 ft | 461 kts | 154° |
| 2026-05-05 23:10 | 55.59504 | -4.17404 | 37134 ft | 460 kts | 154° |
| 2026-05-05 23:11 | 55.53895 | -4.11925 | 37132 ft | 460 kts | 154° |
| 2026-05-05 23:11 | 55.49232 | -4.07387 | 37133 ft | 460 kts | 154° |
| 2026-05-05 23:12 | 55.43625 | -4.01934 | 37114 ft | 460 kts | 154° |
| 2026-05-05 23:12 | 55.38015 | -3.96496 | 37131 ft | 459 kts | 154° |
| 2026-05-05 23:13 | 55.32419 | -3.91092 | 37130 ft | 459 kts | 154° |
| 2026-05-05 23:13 | 55.26851 | -3.85740 | 37132 ft | 459 kts | 155° |
| 2026-05-05 23:14 | 55.21239 | -3.80381 | 37134 ft | 458 kts | 155° |
| 2026-05-05 23:14 | 55.15563 | -3.75374 | 37126 ft | 456 kts | 157° |
| 2026-05-05 23:15 | 55.09834 | -3.70602 | 37135 ft | 456 kts | 158° |
| 2026-05-05 23:15 | 55.04121 | -3.65804 | 37133 ft | 456 kts | 157° |
| 2026-05-05 23:16 | 54.98428 | -3.60938 | 37122 ft | 456 kts | 157° |
| 2026-05-05 23:16 | 54.92730 | -3.56057 | 37107 ft | 455 kts | 157° |
| 2026-05-05 23:17 | 54.87036 | -3.51219 | 37121 ft | 455 kts | 157° |
| 2026-05-05 23:17 | 54.81378 | -3.46444 | 37122 ft | 455 kts | 157° |
| 2026-05-05 23:18 | 54.75682 | -3.41645 | 37119 ft | 455 kts | 157° |
| 2026-05-05 23:18 | 54.69995 | -3.36870 | 37100 ft | 455 kts | 157° |
| 2026-05-05 23:19 | 54.64296 | -3.32094 | 37114 ft | 454 kts | 157° |
| 2026-05-05 23:19 | 54.58601 | -3.27340 | 37111 ft | 454 kts | 157° |
| 2026-05-05 23:20 | 54.52906 | -3.22605 | 37112 ft | 454 kts | 157° |
| 2026-05-05 23:20 | 54.47221 | -3.17897 | 37109 ft | 453 kts | 157° |
| 2026-05-05 23:21 | 54.41539 | -3.13196 | 37098 ft | 453 kts | 157° |
| 2026-05-05 23:21 | 54.35879 | -3.08526 | 37103 ft | 453 kts | 157° |
| 2026-05-05 23:22 | 54.30190 | -3.03841 | 37098 ft | 453 kts | 157° |
| 2026-05-05 23:22 | 54.24496 | -2.99177 | 37101 ft | 453 kts | 157° |
| 2026-05-05 23:23 | 54.18805 | -2.94531 | 37084 ft | 453 kts | 157° |
| 2026-05-05 23:23 | 54.13085 | -2.90029 | 37096 ft | 452 kts | 159° |
| 2026-05-05 23:24 | 54.07289 | -2.85862 | 37098 ft | 451 kts | 160° |
| 2026-05-05 23:24 | 54.01476 | -2.81773 | 37098 ft | 451 kts | 160° |
| 2026-05-05 23:25 | 53.95546 | -2.78421 | 37088 ft | 449 kts | 165° |
| 2026-05-05 23:25 | 53.89587 | -2.75250 | 37089 ft | 449 kts | 165° |
| 2026-05-05 23:26 | 53.83650 | -2.72102 | 37091 ft | 449 kts | 165° |
| 2026-05-05 23:26 | 53.77693 | -2.68954 | 37093 ft | 449 kts | 165° |
| 2026-05-05 23:27 | 53.71722 | -2.65813 | 37093 ft | 449 kts | 165° |
| 2026-05-05 23:27 | 53.65758 | -2.62691 | 37080 ft | 449 kts | 165° |
| 2026-05-05 23:28 | 53.59771 | -2.59576 | 37086 ft | 449 kts | 165° |
| 2026-05-05 23:28 | 53.53805 | -2.56472 | 37089 ft | 449 kts | 165° |
| 2026-05-05 23:29 | 53.47879 | -2.53407 | 37092 ft | 449 kts | 165° |
| 2026-05-05 23:29 | 53.41912 | -2.50327 | 37098 ft | 449 kts | 165° |
| 2026-05-05 23:30 | 53.35939 | -2.47240 | 37098 ft | 449 kts | 165° |
| 2026-05-05 23:30 | 53.29971 | -2.44164 | 37098 ft | 449 kts | 165° |
| 2026-05-05 23:31 | 53.23991 | -2.41097 | 37098 ft | 449 kts | 165° |
| 2026-05-05 23:31 | 53.18027 | -2.38046 | 37087 ft | 449 kts | 165° |
| 2026-05-05 23:32 | 53.12057 | -2.35005 | 37088 ft | 448 kts | 165° |
| 2026-05-05 23:32 | 53.06082 | -2.31974 | 37085 ft | 448 kts | 165° |
| 2026-05-05 23:33 | 53.00397 | -2.27707 | 37077 ft | 453 kts | 149° |
| 2026-05-05 23:33 | 52.95112 | -2.22131 | 37066 ft | 453 kts | 149° |
| 2026-05-05 23:34 | 52.89786 | -2.16551 | 37067 ft | 453 kts | 149° |
| 2026-05-05 23:34 | 52.84453 | -2.10990 | 37071 ft | 453 kts | 149° |
| 2026-05-05 23:35 | 52.79123 | -2.05453 | 37082 ft | 452 kts | 150° |
| 2026-05-05 23:35 | 52.73771 | -1.99908 | 36372 ft | 456 kts | 149° |
| 2026-05-05 23:36 | 52.71092 | -1.97144 | 35790 ft | 455 kts | 149° |
| 2026-05-05 23:36 | 52.68411 | -1.94369 | 35218 ft | 454 kts | 149° |
| 2026-05-05 23:36 | 52.65752 | -1.91615 | 34662 ft | 454 kts | 149° |
| 2026-05-05 23:36 | 52.63079 | -1.88849 | 34104 ft | 454 kts | 149° |
| 2026-05-05 23:37 | 52.60401 | -1.86085 | 33490 ft | 454 kts | 149° |
| 2026-05-05 23:37 | 52.57719 | -1.83324 | 32868 ft | 455 kts | 149° |
| 2026-05-05 23:37 | 52.55025 | -1.80562 | 32247 ft | 455 kts | 149° |
| 2026-05-05 23:37 | 52.52334 | -1.77808 | 31661 ft | 456 kts | 149° |
| 2026-05-05 23:38 | 52.49636 | -1.75048 | 31059 ft | 456 kts | 149° |
| 2026-05-05 23:38 | 52.46976 | -1.72328 | 30494 ft | 457 kts | 149° |
| 2026-05-05 23:38 | 52.44282 | -1.69574 | 29897 ft | 455 kts | 149° |
| 2026-05-05 23:38 | 52.41605 | -1.66840 | 29244 ft | 452 kts | 149° |
| 2026-05-05 23:39 | 52.38944 | -1.64129 | 28589 ft | 448 kts | 150° |
| 2026-05-05 23:39 | 52.36309 | -1.61448 | 27954 ft | 444 kts | 150° |
| 2026-05-05 23:39 | 52.33689 | -1.58787 | 27335 ft | 440 kts | 150° |
| 2026-05-05 23:39 | 52.31103 | -1.56168 | 26713 ft | 436 kts | 150° |
| 2026-05-05 23:40 | 52.28531 | -1.53568 | 26125 ft | 432 kts | 150° |
| 2026-05-05 23:40 | 52.25986 | -1.51007 | 25532 ft | 428 kts | 150° |
| 2026-05-05 23:40 | 52.23460 | -1.48467 | 24967 ft | 424 kts | 150° |
| 2026-05-05 23:40 | 52.21030 | -1.45772 | 24412 ft | 422 kts | 143° |
| 2026-05-05 23:41 | 52.18806 | -1.42664 | 23858 ft | 419 kts | 141° |
| 2026-05-05 23:41 | 52.16608 | -1.39578 | 23280 ft | 416 kts | 141° |
| 2026-05-05 23:41 | 52.14418 | -1.36513 | 22639 ft | 414 kts | 141° |
| 2026-05-05 23:41 | 52.12243 | -1.33474 | 22018 ft | 410 kts | 141° |
| 2026-05-05 23:42 | 52.10081 | -1.30459 | 21410 ft | 408 kts | 141° |
| 2026-05-05 23:42 | 52.07939 | -1.27477 | 20810 ft | 405 kts | 141° |
| 2026-05-05 23:42 | 52.05798 | -1.24506 | 20228 ft | 403 kts | 141° |
| 2026-05-05 23:42 | 52.03668 | -1.21564 | 19650 ft | 401 kts | 141° |
| 2026-05-05 23:43 | 52.01549 | -1.18644 | 19081 ft | 398 kts | 141° |
| 2026-05-05 23:43 | 51.99446 | -1.15745 | 18530 ft | 396 kts | 141° |
| 2026-05-05 23:43 | 51.97354 | -1.12862 | 17929 ft | 393 kts | 141° |
| 2026-05-05 23:43 | 51.95278 | -1.09996 | 17312 ft | 390 kts | 141° |
| 2026-05-05 23:44 | 51.93221 | -1.07152 | 16711 ft | 387 kts | 141° |
| 2026-05-05 23:44 | 51.91176 | -1.04327 | 16116 ft | 384 kts | 141° |
| 2026-05-05 23:44 | 51.89148 | -1.01533 | 15525 ft | 381 kts | 141° |
| 2026-05-05 23:44 | 51.87130 | -0.98764 | 14953 ft | 378 kts | 141° |
| 2026-05-05 23:45 | 51.85298 | -0.95815 | 14397 ft | 377 kts | 126° |
| 2026-05-05 23:45 | 51.84021 | -0.92144 | 13835 ft | 372 kts | 117° |
| 2026-05-05 23:45 | 51.82892 | -0.88465 | 13224 ft | 357 kts | 116° |
| 2026-05-05 23:45 | 51.81823 | -0.84941 | 12614 ft | 344 kts | 116° |
| 2026-05-05 23:46 | 51.80784 | -0.81514 | 12012 ft | 333 kts | 116° |
| 2026-05-05 23:46 | 51.79774 | -0.78203 | 11436 ft | 325 kts | 115° |
| 2026-05-05 23:46 | 51.78782 | -0.74964 | 10849 ft | 318 kts | 115° |
| 2026-05-05 23:46 | 51.77806 | -0.71795 | 10296 ft | 312 kts | 115° |
| 2026-05-05 23:47 | 51.76847 | -0.68687 | 9719 ft | 307 kts | 114° |
| 2026-05-05 23:47 | 51.75905 | -0.65639 | 9091 ft | 302 kts | 115° |
| 2026-05-05 23:47 | 51.74973 | -0.62626 | 8494 ft | 297 kts | 115° |
| 2026-05-05 23:47 | 51.74056 | -0.59665 | 7894 ft | 293 kts | 115° |
| 2026-05-05 23:48 | 51.72933 | -0.56974 | 7334 ft | 290 kts | 136° |
| 2026-05-05 23:48 | 51.71254 | -0.55264 | 6760 ft | 285 kts | 162° |
| 2026-05-05 23:48 | 51.69326 | -0.54778 | 6162 ft | 278 kts | 179° |
| 2026-05-05 23:48 | 51.67408 | -0.54671 | 5666 ft | 272 kts | 179° |
| 2026-05-05 23:49 | 51.65578 | -0.54575 | 5533 ft | 253 kts | 178° |
| 2026-05-05 23:49 | 51.63848 | -0.54525 | 5254 ft | 247 kts | 185° |
| 2026-05-05 23:49 | 51.62224 | -0.55303 | 4996 ft | 243 kts | 211° |
| 2026-05-05 23:49 | 51.60982 | -0.57037 | 4655 ft | 241 kts | 236° |
| 2026-05-05 23:50 | 51.60287 | -0.59445 | 4285 ft | 238 kts | 261° |
| 2026-05-05 23:50 | 51.60117 | -0.62073 | 3914 ft | 237 kts | 269° |
| 2026-05-05 23:50 | 51.59986 | -0.64735 | 3539 ft | 240 kts | 268° |
| 2026-05-05 23:50 | 51.59836 | -0.67407 | 3255 ft | 238 kts | 267° |
| 2026-05-05 23:51 | 51.59674 | -0.70004 | 3128 ft | 230 kts | 266° |
| 2026-05-05 23:51 | 51.59511 | -0.72519 | 2985 ft | 221 kts | 267° |
| 2026-05-05 23:51 | 51.59355 | -0.74932 | 2853 ft | 213 kts | 266° |
| 2026-05-05 23:51 | 51.58974 | -0.77185 | 2693 ft | 209 kts | 240° |
| 2026-05-05 23:52 | 51.57993 | -0.78870 | 2549 ft | 208 kts | 209° |
| 2026-05-05 23:52 | 51.56649 | -0.79614 | 2506 ft | 203 kts | 180° |
| 2026-05-05 23:52 | 51.55249 | -0.79576 | 2509 ft | 201 kts | 174° |
| 2026-05-05 23:52 | 51.53850 | -0.79498 | 2511 ft | 201 kts | 174° |
| 2026-05-05 23:53 | 51.52456 | -0.79423 | 2508 ft | 201 kts | 174° |
| 2026-05-05 23:53 | 51.51061 | -0.79320 | 2503 ft | 199 kts | 168° |
| 2026-05-05 23:53 | 51.49759 | -0.78692 | 2504 ft | 194 kts | 148° |
| 2026-05-05 23:53 | 51.48694 | -0.77436 | 2506 ft | 188 kts | 128° |
| 2026-05-05 23:54 | 51.47966 | -0.75734 | 2507 ft | 184 kts | 110° |
| 2026-05-05 23:54 | 51.47637 | -0.73787 | 2506 ft | 181 kts | 91° |
| 2026-05-05 23:54 | 51.47628 | -0.71777 | 2511 ft | 181 kts | 86° |
| 2026-05-05 23:54 | 51.47640 | -0.69848 | 2522 ft | 163 kts | 86° |
| 2026-05-05 23:55 | 51.47649 | -0.68140 | 2454 ft | 146 kts | 86° |
| 2026-05-05 23:55 | 51.47659 | -0.66561 | 2321 ft | 139 kts | 85° |
| 2026-05-05 23:55 | 51.47668 | -0.65023 | 2157 ft | 136 kts | 85° |
| 2026-05-05 23:55 | 51.47676 | -0.63516 | 1999 ft | 134 kts | 84° |
| 2026-05-05 23:56 | 51.47684 | -0.62029 | 1813 ft | 133 kts | 84° |
| 2026-05-05 23:56 | 51.47692 | -0.60570 | 1632 ft | 132 kts | 84° |
| 2026-05-05 23:56 | 51.47700 | -0.59099 | 1454 ft | 132 kts | 85° |
| 2026-05-05 23:56 | 51.47707 | -0.57620 | 1262 ft | 133 kts | 85° |
| 2026-05-05 23:57 | 51.47715 | -0.56125 | 1074 ft | 134 kts | 85° |
| 2026-05-05 23:57 | 51.47722 | -0.54619 | 886 ft | 134 kts | 86° |
| 2026-05-05 23:57 | 51.47728 | -0.53118 | 690 ft | 136 kts | 87° |
| 2026-05-05 23:57 | 51.47727 | -0.51595 | 521 ft | 136 kts | 86° |
| 2026-05-05 23:58 | 51.47741 | -0.50102 | 351 ft | 134 kts | 84° |
| 2026-05-05 23:58 | 51.47756 | -0.48619 | 148 ft | 132 kts | 86° |
| 2026-05-05 23:58 | 51.47759 | -0.47650 | 90 ft | 127 kts | 88° |
| 2026-05-05 23:58 | 51.47764 | -0.46469 | 90 ft | 81 kts | 91° |
| 2026-05-05 23:59 | 51.47757 | -0.45828 | 86 ft | 41 kts | 90° |
| 2026-05-05 23:59 | 51.47743 | -0.45508 | 89 ft | 16 kts | 124° |
| 2026-05-05 23:59 | 51.47607 | -0.45492 | 89 ft | 14 kts | 228° |
| 2026-05-05 23:59 | 51.47596 | -0.45664 | 88 ft | 17 kts | 271° |
| 2026-05-06 00:00 | 51.47596 | -0.45800 | 89 ft | 19 kts | 270° |
| 2026-05-06 00:00 | 51.47595 | -0.46030 | 88 ft | 22 kts | 269° |
| 2026-05-06 00:00 | 51.47593 | -0.46294 | 86 ft | 25 kts | 269° |
| 2026-05-06 00:00 | 51.47592 | -0.46587 | 86 ft | 28 kts | 270° |
| 2026-05-06 00:01 | 51.47585 | -0.46856 | 86 ft | 21 kts | 263° |
| 2026-05-06 00:01 | 51.47582 | -0.47113 | 86 ft | 24 kts | 270° |
| 2026-05-06 00:01 | 51.47580 | -0.47324 | 90 ft | 17 kts | 269° |
| 2026-05-06 00:01 | 51.47581 | -0.47536 | 88 ft | 21 kts | 270° |
| 2026-05-06 00:02 | 51.47581 | -0.47774 | 87 ft | 18 kts | 269° |
| 2026-05-06 00:02 | 51.47503 | -0.47873 | 86 ft | 18 kts | 180° |
| 2026-05-06 00:02 | 51.47390 | -0.47873 | 86 ft | 15 kts | 179° |
| 2026-05-06 00:02 | 51.47277 | -0.47872 | 86 ft | 15 kts | 180° |
| 2026-05-06 00:03 | 51.47229 | -0.47905 | 90 ft | 8 kts | 261° |
| 2026-05-06 00:03 | 51.47233 | -0.47995 | 88 ft | 7 kts | 269° |
| 2026-05-06 00:03 | 51.47233 | -0.48039 | 86 ft | 2 kts | 269° |
| 2026-05-06 00:03 | 51.47233 | -0.48046 | 86 ft | 0 kts | 269° |